Larkspur, California
Current Conditions -  °F | °C
As of 3:55 AM on Thursday 27 Nov 2014 (Local Time) from KDVO Reporting Station
Haze Haze  
Wind Chill: 42°   Ceiling: Unl
Heat Index: 46°   Visibility: 4mi
Dew Point: 45°   Wind: 8mph
Humidity: 93%   Direction: 190°S
Pressure: 30.18"   Gusts: NA
Location:  37.93°N, 122.53°W
Report Text: KDVO 271155Z AUTO 19007KT 4SM BR CLR 08/07 A3018 RMK AO2
Loading
Personal Weather Stations






























Interactive Weather Map New forecast layout! Learn more

10-Day Weather Forecast

Advertisements
Track Severe Weather on mobile